createdAt,value
2024-05-09T00:00:42.895Z,68.06
2024-05-09T00:01:42.877Z,66.98
2024-05-09T00:02:42.813Z,68.42
2024-05-09T00:03:42.920Z,69.08
2024-05-09T00:04:42.914Z,68.18
2024-05-09T00:05:43.366Z,68.53
2024-05-09T00:06:42.780Z,67.19
2024-05-09T00:07:42.787Z,66.08
2024-05-09T00:08:42.806Z,68.34
2024-05-09T00:09:42.752Z,66.24
2024-05-09T00:10:42.740Z,65.18
2024-05-09T00:11:42.798Z,65.82
2024-05-09T00:12:42.701Z,66.58
2024-05-09T00:13:42.802Z,65.76
2024-05-09T00:14:42.691Z,65.54
2024-05-09T00:15:42.677Z,66.30
2024-05-09T00:16:42.722Z,66.67
2024-05-09T00:17:42.949Z,65.73
2024-05-09T00:18:42.747Z,64.60
2024-05-09T00:19:42.741Z,66.23
2024-05-09T00:20:42.665Z,65.68
2024-05-09T00:21:42.630Z,64.97
2024-05-09T00:22:42.685Z,65.98
2024-05-09T00:23:42.664Z,67.33
2024-05-09T00:24:42.584Z,66.49
2024-05-09T00:25:42.997Z,67.30
2024-05-09T00:26:42.626Z,67.35
2024-05-09T00:27:42.571Z,66.12
2024-05-09T00:28:42.638Z,66.57
2024-05-09T00:29:42.535Z,65.31
2024-05-09T00:30:42.530Z,65.20
2024-05-09T00:31:42.549Z,65.72
2024-05-09T00:32:42.685Z,65.41
2024-05-09T00:33:42.726Z,64.51
2024-05-09T00:34:42.506Z,65.42
2024-05-09T00:35:42.556Z,65.42
2024-05-09T00:36:42.471Z,66.03
2024-05-09T00:37:42.527Z,65.81
2024-05-09T00:38:42.466Z,66.79
2024-05-09T00:39:42.435Z,66.94
2024-05-09T00:40:43.620Z,65.96
2024-05-09T00:41:42.441Z,65.54
2024-05-09T00:42:42.396Z,64.84
2024-05-09T00:43:42.413Z,65.98
2024-05-09T00:44:42.369Z,66.02
2024-05-09T00:45:42.405Z,65.01
2024-05-09T00:46:42.479Z,64.74
2024-05-09T00:47:42.490Z,66.31
2024-05-09T00:48:42.411Z,66.27
2024-05-09T00:49:42.572Z,66.73
2024-05-09T00:50:42.765Z,64.60
2024-05-09T00:51:42.316Z,67.09
2024-05-09T00:52:42.376Z,64.38
2024-05-09T00:53:42.357Z,65.45
2024-05-09T00:54:42.277Z,65.81
2024-05-09T00:55:42.278Z,65.91
2024-05-09T00:56:42.306Z,67.30
2024-05-09T00:57:42.246Z,66.60
2024-05-09T00:58:42.264Z,64.91
2024-05-09T00:59:42.210Z,65.47
2024-05-09T01:00:42.274Z,64.74
2024-05-09T01:01:42.311Z,64.96
2024-05-09T01:02:42.363Z,65.62
2024-05-09T01:03:42.408Z,67.65
2024-05-09T01:04:42.337Z,67.81
2024-05-09T01:05:42.639Z,65.93
2024-05-09T01:06:42.158Z,64.34
2024-05-09T01:07:42.295Z,65.24
2024-05-09T01:08:42.218Z,66.38
2024-05-09T01:09:42.141Z,65.56
2024-05-09T01:10:44.866Z,65.87
2024-05-09T01:11:42.226Z,66.32
2024-05-09T01:12:42.122Z,66.74
2024-05-09T01:13:42.107Z,67.02
2024-05-09T01:14:42.082Z,66.56
2024-05-09T01:15:42.068Z,66.68
2024-05-09T01:16:42.057Z,64.87
2024-05-09T01:17:42.283Z,64.80
2024-05-09T01:18:42.114Z,64.45
2024-05-09T01:19:42.160Z,65.99
2024-05-09T01:20:44.406Z,64.65
2024-05-09T01:21:41.992Z,65.72
2024-05-09T01:23:15.805Z,67.81
2024-05-09T01:23:42.031Z,68.88
2024-05-09T01:24:42.008Z,67.34
2024-05-09T01:25:42.008Z,66.15
2024-05-09T01:26:41.982Z,66.84
2024-05-09T01:27:41.935Z,66.23
2024-05-09T01:28:41.951Z,68.05
2024-05-09T01:29:41.911Z,65.16
2024-05-09T01:30:41.899Z,67.90
2024-05-09T01:31:41.914Z,66.55
2024-05-09T01:32:41.979Z,66.35
2024-05-09T01:33:42.038Z,67.27
2024-05-09T01:34:41.855Z,66.59
2024-05-09T01:35:42.905Z,66.43
2024-05-09T01:36:41.832Z,66.86
2024-05-09T01:37:41.840Z,68.32
2024-05-09T01:38:41.867Z,65.82
2024-05-09T01:39:41.808Z,67.10
2024-05-09T01:40:41.838Z,66.61
2024-05-09T01:41:41.780Z,65.63
2024-05-09T01:42:41.803Z,65.95
2024-05-09T01:43:41.771Z,67.49
2024-05-09T01:44:41.759Z,68.34
2024-05-09T01:45:41.862Z,65.96
2024-05-09T01:46:41.764Z,67.44
2024-05-09T01:47:42.286Z,66.63
2024-05-09T01:48:41.803Z,67.33
2024-05-09T01:49:41.781Z,66.47
2024-05-09T01:50:43.132Z,67.38
2024-05-09T01:51:41.691Z,65.86
2024-05-09T01:52:41.670Z,65.24
2024-05-09T01:53:41.703Z,67.40
2024-05-09T01:54:41.655Z,66.27
2024-05-09T01:55:41.651Z,65.83
2024-05-09T01:56:41.733Z,67.24
2024-05-09T01:57:41.626Z,66.46
2024-05-09T01:58:41.614Z,65.63
2024-05-09T01:59:41.623Z,66.75
2024-05-09T02:00:43.129Z,67.15
2024-05-09T02:01:56.086Z,65.86
2024-05-09T02:02:42.612Z,66.18
2024-05-09T02:03:41.700Z,66.34
2024-05-09T02:04:41.674Z,65.68
2024-05-09T02:05:41.623Z,66.31
2024-05-09T02:06:41.523Z,65.62
2024-05-09T02:07:41.513Z,65.66
2024-05-09T02:08:41.571Z,65.47
2024-05-09T02:09:41.491Z,65.90
2024-05-09T02:10:41.530Z,67.36
2024-05-09T02:11:41.664Z,67.00
2024-05-09T02:12:41.468Z,66.04
2024-05-09T02:13:41.453Z,66.78
2024-05-09T02:14:41.484Z,67.16
2024-05-09T02:15:41.474Z,65.63
2024-05-09T02:16:41.429Z,66.37
2024-05-09T02:17:41.870Z,66.42
2024-05-09T02:18:41.437Z,66.55
2024-05-09T02:19:41.414Z,67.58
2024-05-09T02:20:42.065Z,68.01
2024-05-09T02:21:41.393Z,65.31
2024-05-09T02:22:41.389Z,67.41
2024-05-09T02:23:41.376Z,66.60
2024-05-09T02:24:41.371Z,65.67
2024-05-09T02:25:41.329Z,65.45
2024-05-09T02:26:41.324Z,66.33
2024-05-09T02:27:41.318Z,65.97
2024-05-09T02:28:41.316Z,66.98
2024-05-09T02:29:41.407Z,66.96
2024-05-09T02:30:42.403Z,64.00
2024-05-09T02:31:41.272Z,65.52
2024-05-09T02:32:41.403Z,65.79
2024-05-09T02:33:41.375Z,65.83
2024-05-09T02:34:41.380Z,65.69
2024-05-09T02:35:41.348Z,64.97
2024-05-09T02:36:41.226Z,66.38
2024-05-09T02:37:41.201Z,67.13
2024-05-09T02:38:41.264Z,68.57
2024-05-09T02:39:41.205Z,67.20
2024-05-09T02:40:41.232Z,67.18
2024-05-09T02:41:41.164Z,66.45
2024-05-09T02:42:41.167Z,66.67
2024-05-09T02:43:41.159Z,67.94
2024-05-09T02:44:41.132Z,67.43
2024-05-09T02:45:41.149Z,67.18
2024-05-09T02:46:41.111Z,68.12
2024-05-09T02:47:41.272Z,67.76
2024-05-09T02:48:41.129Z,68.46
2024-05-09T02:49:41.142Z,68.85
2024-05-09T02:50:41.348Z,68.64
2024-05-09T02:51:41.078Z,67.40
2024-05-09T02:52:41.066Z,67.64
2024-05-09T02:53:41.140Z,68.79
2024-05-09T02:54:41.049Z,67.65
2024-05-09T02:55:41.023Z,69.34
2024-05-09T02:56:41.135Z,68.74
2024-05-09T02:57:41.013Z,68.73
2024-05-09T02:58:41.014Z,69.49
2024-05-09T02:59:40.989Z,69.00
2024-05-09T03:00:42.595Z,68.84
2024-05-09T03:01:41.081Z,68.27
2024-05-09T03:02:41.037Z,68.86
2024-05-09T03:03:41.046Z,67.89
2024-05-09T03:04:40.968Z,69.20
2024-05-09T03:05:41.215Z,67.99
2024-05-09T03:06:41.927Z,68.07
2024-05-09T03:07:41.915Z,68.37
2024-05-09T03:08:40.910Z,68.41
2024-05-09T03:09:40.881Z,68.31
2024-05-09T03:10:40.907Z,68.71
2024-05-09T03:11:41.002Z,68.21
2024-05-09T03:12:40.872Z,68.18
2024-05-09T03:13:40.842Z,68.58
2024-05-09T03:14:40.878Z,69.03
2024-05-09T03:15:40.850Z,67.55
2024-05-09T03:16:40.815Z,68.71
2024-05-09T03:17:40.971Z,68.08
2024-05-09T03:18:40.863Z,67.26
2024-05-09T03:19:40.788Z,68.60
2024-05-09T03:20:40.966Z,69.14
2024-05-09T03:21:40.761Z,68.77
2024-05-09T03:22:40.757Z,69.27
2024-05-09T03:23:40.816Z,68.87
2024-05-09T03:24:40.764Z,67.80
2024-05-09T03:25:40.736Z,68.96
2024-05-09T03:26:40.785Z,68.55
2024-05-09T03:27:40.716Z,69.31
2024-05-09T03:28:40.694Z,68.76
2024-05-09T03:29:40.693Z,68.54
2024-05-09T03:30:42.915Z,67.92
2024-05-09T03:31:40.710Z,68.53
2024-05-09T03:32:40.753Z,69.24
2024-05-09T03:33:40.941Z,69.09
2024-05-09T03:34:40.658Z,68.81
2024-05-09T03:35:40.694Z,68.38
2024-05-09T03:36:40.611Z,69.56
2024-05-09T03:37:40.611Z,68.72
2024-05-09T03:38:40.676Z,69.97
2024-05-09T03:39:40.584Z,68.06
2024-05-09T03:40:40.582Z,69.19
2024-05-09T03:41:40.611Z,69.67
2024-05-09T03:42:40.571Z,69.42
2024-05-09T03:43:40.573Z,69.10
2024-05-09T03:44:40.626Z,68.23
2024-05-09T03:45:40.523Z,68.97
2024-05-09T03:46:40.521Z,68.33
2024-05-09T03:47:40.829Z,68.92
2024-05-09T03:48:41.622Z,68.77
2024-05-09T03:49:40.782Z,67.48
2024-05-09T03:50:40.569Z,68.47
2024-05-09T03:51:40.467Z,68.49
2024-05-09T03:52:40.463Z,68.45
2024-05-09T03:53:40.515Z,68.28
2024-05-09T03:54:40.430Z,68.63
2024-05-09T03:55:40.440Z,68.51
2024-05-09T03:56:40.623Z,68.07
2024-05-09T03:57:40.603Z,69.61
2024-05-09T03:58:40.388Z,68.66
2024-05-09T03:59:40.437Z,68.29
2024-05-09T04:00:40.598Z,68.56
2024-05-09T04:01:40.524Z,68.03
2024-05-09T04:02:40.443Z,69.04
2024-05-09T04:03:40.484Z,68.94
2024-05-09T04:04:40.380Z,68.86
2024-05-09T04:05:41.641Z,68.79
2024-05-09T04:06:40.328Z,68.84
2024-05-09T04:07:40.324Z,69.35
2024-05-09T04:08:40.400Z,67.48
2024-05-09T04:09:40.288Z,68.72
2024-05-09T04:10:40.294Z,68.91
2024-05-09T04:11:40.475Z,68.76
2024-05-09T04:12:40.252Z,68.43
2024-05-09T04:13:40.244Z,69.01
2024-05-09T04:14:40.305Z,67.67
2024-05-09T04:15:40.233Z,68.27
2024-05-09T04:16:40.222Z,68.93
2024-05-09T04:17:40.394Z,68.24
2024-05-09T04:18:40.285Z,68.64
2024-05-09T04:19:40.237Z,67.65
2024-05-09T04:20:41.291Z,68.65
2024-05-09T04:21:40.163Z,67.48
2024-05-09T04:22:40.153Z,68.75
2024-05-09T04:23:40.203Z,67.94
2024-05-09T04:24:40.136Z,68.55
2024-05-09T04:25:40.136Z,69.27
2024-05-09T04:26:40.146Z,68.47
2024-05-09T04:27:40.132Z,68.26
2024-05-09T04:28:40.090Z,68.99
2024-05-09T04:29:40.155Z,67.84
2024-05-09T04:30:41.574Z,67.92
2024-05-09T04:31:40.068Z,68.18
2024-05-09T04:32:40.200Z,68.34
2024-05-09T04:33:40.153Z,68.01
2024-05-09T04:34:40.111Z,68.54
2024-05-09T04:35:40.051Z,67.97
2024-05-09T04:36:43.194Z,68.36
2024-05-09T04:37:41.010Z,68.69
2024-05-09T04:38:40.143Z,69.33
2024-05-09T04:39:40.007Z,68.37
2024-05-09T04:40:39.984Z,69.35
2024-05-09T04:41:40.031Z,68.43
2024-05-09T04:42:39.977Z,69.25
2024-05-09T04:43:39.969Z,68.37
2024-05-09T04:44:39.988Z,68.94
2024-05-09T04:45:39.926Z,67.52
2024-05-09T04:46:39.902Z,68.43
2024-05-09T04:47:40.094Z,67.91
2024-05-09T04:48:40.021Z,67.85
2024-05-09T04:49:40.924Z,67.84
2024-05-09T04:50:40.162Z,68.92
2024-05-09T04:51:39.871Z,68.27
2024-05-09T04:52:39.851Z,68.37
2024-05-09T04:53:40.075Z,68.49
2024-05-09T04:54:39.834Z,68.66
2024-05-09T04:55:40.295Z,69.02
2024-05-09T04:56:39.822Z,68.60
2024-05-09T04:57:39.840Z,67.06
2024-05-09T04:58:39.803Z,68.12
2024-05-09T04:59:39.793Z,68.91
2024-05-09T05:00:41.442Z,67.64
2024-05-09T05:01:39.782Z,69.09
2024-05-09T05:02:39.883Z,68.77
2024-05-09T05:03:39.965Z,67.86
2024-05-09T05:04:39.746Z,66.78
2024-05-09T05:05:39.773Z,65.99
2024-05-09T05:06:39.727Z,66.22
2024-05-09T05:07:39.722Z,67.29
2024-05-09T05:08:39.780Z,66.06
2024-05-09T05:09:39.679Z,68.26
2024-05-09T05:10:39.675Z,66.18
2024-05-09T05:11:39.781Z,66.87
2024-05-09T05:12:39.662Z,67.71
2024-05-09T05:13:41.611Z,66.66
2024-05-09T05:14:40.757Z,66.97
2024-05-09T05:15:39.619Z,67.89
2024-05-09T05:16:39.632Z,66.98
2024-05-09T05:17:39.775Z,66.87
2024-05-09T05:18:39.698Z,67.55
2024-05-09T05:19:39.678Z,66.97
2024-05-09T05:20:39.616Z,66.28
2024-05-09T05:21:39.570Z,67.42
2024-05-09T05:22:39.551Z,67.19
2024-05-09T05:23:39.746Z,65.96
2024-05-09T05:24:39.529Z,67.89
2024-05-09T05:25:39.546Z,67.34
2024-05-09T05:26:40.571Z,67.00
2024-05-09T05:27:39.506Z,66.08
2024-05-09T05:28:39.519Z,67.92
2024-05-09T05:29:39.569Z,67.76
2024-05-09T05:30:39.484Z,66.63
2024-05-09T05:31:39.563Z,67.46
2024-05-09T05:32:39.592Z,67.22
2024-05-09T05:33:39.539Z,66.48
2024-05-09T05:34:39.425Z,66.60
2024-05-09T05:35:39.846Z,67.62
2024-05-09T05:36:39.410Z,67.46
2024-05-09T05:37:39.409Z,66.73
2024-05-09T05:38:39.399Z,67.29
2024-05-09T05:39:39.391Z,67.08
2024-05-09T05:40:40.528Z,67.41
2024-05-09T05:41:39.391Z,66.72
2024-05-09T05:42:39.344Z,67.45
2024-05-09T05:43:39.330Z,67.17
2024-05-09T05:44:39.474Z,66.96
2024-05-09T05:45:39.529Z,67.19
2024-05-09T05:46:39.640Z,67.22
2024-05-09T05:47:39.404Z,68.79
2024-05-09T05:48:39.371Z,66.59
2024-05-09T05:49:40.331Z,67.59
2024-05-09T05:50:39.359Z,66.97
2024-05-09T05:51:40.243Z,66.77
2024-05-09T05:52:39.252Z,65.82
2024-05-09T05:53:39.283Z,66.83
2024-05-09T05:54:39.245Z,65.95
2024-05-09T05:55:39.420Z,66.32
2024-05-09T05:56:39.282Z,65.71
2024-05-09T05:57:39.180Z,66.81
2024-05-09T05:58:39.205Z,67.41
2024-05-09T05:59:39.284Z,68.02
2024-05-09T06:00:40.627Z,67.40
2024-05-09T06:01:39.158Z,67.36
2024-05-09T06:02:39.212Z,68.24
2024-05-09T06:03:39.509Z,67.32
2024-05-09T06:04:39.175Z,67.57
2024-05-09T06:05:39.260Z,67.36
2024-05-09T06:06:39.092Z,66.15
2024-05-09T06:07:39.104Z,65.93
2024-05-09T06:08:39.179Z,66.82
2024-05-09T06:09:39.058Z,67.03
2024-05-09T06:10:40.838Z,66.03
2024-05-09T06:11:39.108Z,66.58
2024-05-09T06:12:39.084Z,66.49
2024-05-09T06:13:39.012Z,67.20
2024-05-09T06:14:39.039Z,66.72
2024-05-09T06:15:38.988Z,66.96
2024-05-09T06:16:38.992Z,66.23
2024-05-09T06:17:39.220Z,66.68
2024-05-09T06:18:39.083Z,66.12
2024-05-09T06:19:39.043Z,67.47
2024-05-09T06:20:39.013Z,67.52
2024-05-09T06:21:38.963Z,65.73
2024-05-09T06:22:38.934Z,67.01
2024-05-09T06:23:39.051Z,66.79
2024-05-09T06:24:38.902Z,66.47
2024-05-09T06:25:38.953Z,65.54
2024-05-09T06:26:39.069Z,67.92
2024-05-09T06:27:38.878Z,66.99
2024-05-09T06:28:38.861Z,67.42
2024-05-09T06:29:38.918Z,67.60
2024-05-09T06:30:41.228Z,67.99
2024-05-09T06:31:38.851Z,66.37
2024-05-09T06:32:38.921Z,66.72
2024-05-09T06:33:39.047Z,67.17
2024-05-09T06:34:38.967Z,68.01
2024-05-09T06:35:38.958Z,67.44
2024-05-09T06:36:38.806Z,66.45
2024-05-09T06:37:38.775Z,66.50
2024-05-09T06:38:38.836Z,67.09
2024-05-09T06:39:38.748Z,67.84
2024-05-09T06:40:40.322Z,66.96
2024-05-09T06:41:38.824Z,66.46
2024-05-09T06:42:38.722Z,67.29
2024-05-09T06:43:38.711Z,67.51
2024-05-09T06:44:38.736Z,66.36
2024-05-09T06:45:38.701Z,66.09
2024-05-09T06:46:38.672Z,66.18
2024-05-09T06:47:38.805Z,65.74
2024-05-09T06:48:38.783Z,66.90
2024-05-09T06:49:38.716Z,66.35
2024-05-09T06:50:39.798Z,66.10
2024-05-09T06:51:38.623Z,67.17
2024-05-09T06:52:38.600Z,66.47
2024-05-09T06:53:38.671Z,66.95
2024-05-09T06:54:38.604Z,66.28
2024-05-09T06:55:38.570Z,67.29
2024-05-09T06:56:38.584Z,66.43
2024-05-09T06:57:41.487Z,66.05
2024-05-09T06:58:39.547Z,67.49
2024-05-09T06:59:38.596Z,66.40
2024-05-09T07:00:40.897Z,66.11
2024-05-09T07:01:38.538Z,66.62
2024-05-09T07:02:38.738Z,66.88
2024-05-09T07:03:38.636Z,66.48
2024-05-09T07:04:38.554Z,66.94
2024-05-09T07:05:38.529Z,67.77
2024-05-09T07:06:38.458Z,65.66
2024-05-09T07:07:38.462Z,67.25
2024-05-09T07:08:38.640Z,66.79
2024-05-09T07:09:38.433Z,66.50
2024-05-09T07:10:38.663Z,65.84
2024-05-09T07:11:38.495Z,67.54
2024-05-09T07:12:38.414Z,65.86
2024-05-09T07:13:38.441Z,66.55
2024-05-09T07:14:38.752Z,66.51
2024-05-09T07:15:38.377Z,65.93
2024-05-09T07:16:38.350Z,65.04
2024-05-09T07:17:38.569Z,65.42
2024-05-09T07:18:38.576Z,67.28
2024-05-09T07:19:38.503Z,67.26
2024-05-09T07:20:38.372Z,66.97
2024-05-09T07:21:38.298Z,68.20
2024-05-09T07:23:10.523Z,67.88
2024-05-09T07:23:38.402Z,66.24
2024-05-09T07:24:38.271Z,66.00
2024-05-09T07:25:38.344Z,64.94
2024-05-09T07:26:38.330Z,64.34
2024-05-09T07:27:38.246Z,65.87
2024-05-09T07:28:38.225Z,66.28
2024-05-09T07:29:38.851Z,67.31
2024-05-09T07:30:39.234Z,66.99
2024-05-09T07:31:38.215Z,66.82
2024-05-09T07:32:38.432Z,66.75
2024-05-09T07:33:38.275Z,66.47
2024-05-09T07:34:38.201Z,66.43
2024-05-09T07:35:38.241Z,67.13
2024-05-09T07:36:38.168Z,66.89
2024-05-09T07:37:38.135Z,67.15
2024-05-09T07:38:38.303Z,67.38
2024-05-09T07:39:38.112Z,66.38
2024-05-09T07:40:38.102Z,65.96
2024-05-09T07:41:38.138Z,65.87
2024-05-09T07:42:38.246Z,65.97
2024-05-09T07:43:38.071Z,66.81
2024-05-09T07:44:38.136Z,67.37
2024-05-09T07:45:48.508Z,66.33
2024-05-09T07:47:47.684Z,66.13
2024-05-09T07:49:11.929Z,66.73
2024-05-09T07:53:14.317Z,66.28
2024-05-09T07:53:44.134Z,65.42
2024-05-09T07:54:39.079Z,67.20
2024-05-09T07:55:38.079Z,66.08
2024-05-09T07:56:38.431Z,66.94
2024-05-09T07:57:38.003Z,68.18
2024-05-09T07:58:37.922Z,68.31
2024-05-09T07:59:38.176Z,65.88
2024-05-09T08:00:38.002Z,66.08
2024-05-09T08:01:38.951Z,66.42
2024-05-09T08:02:37.944Z,65.99
2024-05-09T08:03:38.071Z,68.52
2024-05-09T08:04:37.969Z,68.24
2024-05-09T08:05:37.896Z,68.64
2024-05-09T08:06:37.890Z,68.17
2024-05-09T08:07:37.844Z,67.95
2024-05-09T08:08:37.840Z,68.08
2024-05-09T08:09:38.507Z,68.78
2024-05-09T08:10:38.958Z,67.64
2024-05-09T08:11:38.852Z,68.51
2024-05-09T08:12:37.784Z,69.31
2024-05-09T08:13:37.780Z,68.44
2024-05-09T08:14:37.771Z,67.82
2024-05-09T08:15:37.807Z,67.87
2024-05-09T08:16:37.751Z,65.62
2024-05-09T08:17:37.858Z,66.52
2024-05-09T08:18:37.982Z,68.71
2024-05-09T08:19:37.833Z,67.58
2024-05-09T08:20:37.698Z,68.14
2024-05-09T08:21:37.754Z,68.42
2024-05-09T08:22:37.671Z,68.25
2024-05-09T08:23:37.669Z,69.49
2024-05-09T08:24:37.776Z,68.18
2024-05-09T08:25:37.648Z,67.31
2024-05-09T08:26:37.641Z,69.02
2024-05-09T08:27:37.677Z,67.96
2024-05-09T08:28:37.624Z,68.31
2024-05-09T08:29:37.603Z,67.36
2024-05-09T08:30:38.404Z,68.72
2024-05-09T08:31:37.695Z,68.64
2024-05-09T08:32:37.667Z,67.99
2024-05-09T08:33:37.751Z,68.10
2024-05-09T08:34:37.571Z,67.99
2024-05-09T08:35:37.535Z,68.77
2024-05-09T08:36:37.570Z,68.38
2024-05-09T08:37:39.964Z,67.72
2024-05-09T08:38:37.506Z,68.93
2024-05-09T08:39:37.616Z,67.65
2024-05-09T08:40:38.283Z,68.89
2024-05-09T08:41:37.530Z,68.29
2024-05-09T08:42:37.499Z,69.99
2024-05-09T08:43:39.886Z,69.33
2024-05-09T08:44:38.442Z,68.39
2024-05-09T08:45:37.560Z,67.58
2024-05-09T08:46:37.500Z,67.34
2024-05-09T08:47:37.482Z,66.76
2024-05-09T08:48:37.597Z,67.39
2024-05-09T08:49:37.884Z,67.60
2024-05-09T08:50:39.768Z,66.99
2024-05-09T08:51:37.647Z,68.48
2024-05-09T08:52:37.379Z,67.83
2024-05-09T08:53:37.373Z,67.54
2024-05-09T08:54:37.391Z,67.48
2024-05-09T08:55:40.793Z,67.34
2024-05-09T08:56:38.359Z,67.33
2024-05-09T08:57:37.393Z,66.77
2024-05-09T08:58:37.308Z,68.39
2024-05-09T08:59:37.302Z,68.86
2024-05-09T09:00:37.911Z,67.39
2024-05-09T09:01:38.152Z,66.93
2024-05-09T09:02:38.381Z,68.19
2024-05-09T09:03:37.628Z,67.19
2024-05-09T09:04:37.429Z,66.12
2024-05-09T09:05:37.495Z,67.99
2024-05-09T09:06:37.284Z,68.26
2024-05-09T09:07:37.258Z,68.83
2024-05-09T09:08:37.202Z,67.15
2024-05-09T09:09:37.230Z,68.00
2024-05-09T09:10:37.230Z,67.23
2024-05-09T09:11:37.321Z,67.49
2024-05-09T09:12:37.218Z,67.26
2024-05-09T09:13:37.170Z,66.98
2024-05-09T09:14:37.156Z,67.94
2024-05-09T09:15:37.153Z,68.23
2024-05-09T09:16:37.128Z,67.27
2024-05-09T09:17:37.166Z,67.09
2024-05-09T09:18:37.409Z,67.53
2024-05-09T09:19:37.239Z,68.62
2024-05-09T09:20:38.134Z,68.75
2024-05-09T09:21:37.335Z,69.34
2024-05-09T09:22:37.059Z,69.05
2024-05-09T09:23:37.061Z,69.04
2024-05-09T09:24:37.069Z,68.22
2024-05-09T09:25:37.029Z,68.14
2024-05-09T09:26:37.023Z,68.74
2024-05-09T09:27:37.027Z,70.26
2024-05-09T09:28:37.081Z,67.74
2024-05-09T09:29:37.013Z,68.51
2024-05-09T09:30:38.151Z,69.36
2024-05-09T09:31:36.992Z,68.31
2024-05-09T09:32:37.087Z,70.07
2024-05-09T09:33:37.087Z,68.46
2024-05-09T09:34:36.992Z,68.81
2024-05-09T09:35:36.929Z,69.59
2024-05-09T09:36:36.943Z,67.97
2024-05-09T09:37:36.983Z,67.09
2024-05-09T09:38:36.918Z,68.72
2024-05-09T09:39:36.928Z,68.08
2024-05-09T09:40:40.470Z,67.31
2024-05-09T09:41:37.863Z,66.27
2024-05-09T09:42:36.913Z,66.46
2024-05-09T09:43:36.851Z,66.92
2024-05-09T09:44:39.581Z,67.20
2024-05-09T09:45:38.843Z,65.46
2024-05-09T09:46:36.859Z,66.29
2024-05-09T09:47:36.942Z,66.10
2024-05-09T09:48:36.892Z,66.14
2024-05-09T09:49:36.919Z,67.01
2024-05-09T09:50:36.802Z,65.93
2024-05-09T09:51:36.827Z,67.23
2024-05-09T09:52:36.767Z,68.47
2024-05-09T09:53:36.766Z,67.98
2024-05-09T09:54:36.770Z,68.22
2024-05-09T09:55:36.732Z,68.10
2024-05-09T09:56:36.738Z,66.81
2024-05-09T09:57:36.744Z,67.96
2024-05-09T09:58:36.716Z,67.34
2024-05-09T09:59:36.693Z,67.89
2024-05-09T10:00:36.807Z,68.47
2024-05-09T10:01:36.892Z,67.43
2024-05-09T10:02:36.744Z,66.03
2024-05-09T10:03:36.934Z,66.13
2024-05-09T10:04:36.755Z,65.79
2024-05-09T10:05:36.935Z,66.37
2024-05-09T10:06:36.706Z,66.53
2024-05-09T10:07:36.617Z,66.16
2024-05-09T10:08:36.629Z,67.88
2024-05-09T10:09:36.616Z,67.58
2024-05-09T10:10:36.677Z,67.51
2024-05-09T10:11:45.060Z,68.10
2024-05-09T10:12:38.650Z,66.90
2024-05-09T10:13:36.599Z,66.57
2024-05-09T10:14:36.548Z,68.42
2024-05-09T10:15:36.576Z,66.90
2024-05-09T10:16:36.555Z,66.39
2024-05-09T10:17:36.705Z,64.85
2024-05-09T10:18:36.751Z,63.17
2024-05-09T10:19:36.590Z,63.11
2024-05-09T10:20:36.566Z,62.53
2024-05-09T10:21:36.533Z,64.46
2024-05-09T10:22:37.242Z,63.84
2024-05-09T10:23:36.466Z,67.11
2024-05-09T10:24:36.481Z,64.96
2024-05-09T10:25:36.485Z,65.13
2024-05-09T10:26:36.428Z,67.92
2024-05-09T10:27:36.442Z,66.57
2024-05-09T10:28:36.407Z,68.67
2024-05-09T10:29:36.414Z,66.70
2024-05-09T10:30:36.900Z,64.92
2024-05-09T10:31:36.403Z,65.17
2024-05-09T10:32:36.433Z,64.94
2024-05-09T10:33:36.475Z,63.38
2024-05-09T10:34:36.464Z,64.21
2024-05-09T10:35:36.332Z,64.94
2024-05-09T10:36:36.373Z,64.15
2024-05-09T10:37:36.389Z,64.94
2024-05-09T10:38:36.387Z,66.21
2024-05-09T10:39:36.342Z,65.86
2024-05-09T10:40:36.424Z,66.61
2024-05-09T10:41:36.279Z,65.44
2024-05-09T10:42:36.398Z,65.73
2024-05-09T10:43:36.265Z,64.76
2024-05-09T10:44:36.246Z,67.72
2024-05-09T10:45:36.235Z,66.92
2024-05-09T10:46:36.249Z,67.05
2024-05-09T10:47:36.322Z,67.43
2024-05-09T10:48:36.253Z,66.32
2024-05-09T10:49:36.221Z,64.38
2024-05-09T10:50:36.201Z,65.70
2024-05-09T10:51:36.218Z,64.72
2024-05-09T10:52:36.175Z,66.14
2024-05-09T10:53:36.154Z,66.10
2024-05-09T10:54:36.173Z,63.59
2024-05-09T10:55:36.152Z,64.85
2024-05-09T10:56:36.127Z,66.46
2024-05-09T10:57:36.158Z,66.31
2024-05-09T10:58:36.105Z,65.91
2024-05-09T10:59:36.145Z,65.98
2024-05-09T11:00:36.797Z,64.02
2024-05-09T11:01:36.182Z,64.72
2024-05-09T11:02:36.266Z,66.93
2024-05-09T11:03:36.571Z,64.71
2024-05-09T11:04:36.096Z,64.86
2024-05-09T11:05:36.221Z,65.01
2024-05-09T11:06:36.106Z,65.68
2024-05-09T11:07:36.017Z,64.75
2024-05-09T11:08:36.002Z,65.00
2024-05-09T11:09:36.019Z,66.23
2024-05-09T11:10:36.025Z,66.84
2024-05-09T11:11:36.065Z,64.48
2024-05-09T11:12:36.003Z,64.07
2024-05-09T11:13:36.056Z,66.63
2024-05-09T11:14:35.953Z,65.60
2024-05-09T11:15:36.059Z,65.61
2024-05-09T11:16:35.959Z,65.86
2024-05-09T11:17:36.108Z,66.39
2024-05-09T11:18:38.937Z,65.82
2024-05-09T11:19:35.962Z,67.33
2024-05-09T11:20:36.169Z,67.28
2024-05-09T11:21:35.916Z,65.74
2024-05-09T11:22:35.880Z,66.11
2024-05-09T11:23:35.866Z,65.24
2024-05-09T11:24:35.928Z,67.99
2024-05-09T11:25:35.857Z,65.79
2024-05-09T11:26:35.840Z,65.54
2024-05-09T11:27:35.900Z,65.58
2024-05-09T11:28:35.870Z,65.96
2024-05-09T11:29:35.847Z,64.65
2024-05-09T11:30:35.873Z,65.74
2024-05-09T11:31:35.922Z,65.68
2024-05-09T11:32:35.975Z,66.61
2024-05-09T11:33:35.913Z,65.65
2024-05-09T11:34:35.853Z,63.30
2024-05-09T11:35:35.777Z,64.55
2024-05-09T11:36:35.790Z,66.70
2024-05-09T11:37:37.224Z,66.65
2024-05-09T11:38:35.725Z,64.35
2024-05-09T11:39:35.756Z,65.74
2024-05-09T11:40:35.729Z,67.07
2024-05-09T11:41:35.694Z,65.18
2024-05-09T11:42:35.693Z,65.18
2024-05-09T11:43:35.712Z,65.61
2024-05-09T11:44:35.699Z,65.71
2024-05-09T11:45:35.669Z,65.88
2024-05-09T11:46:35.639Z,66.37
2024-05-09T11:47:35.693Z,63.51
2024-05-09T11:48:35.751Z,64.83
2024-05-09T11:49:35.699Z,65.03
2024-05-09T11:50:36.353Z,64.40
2024-05-09T11:51:36.377Z,64.35
2024-05-09T11:52:35.633Z,63.97
2024-05-09T11:53:35.604Z,63.64
2024-05-09T11:54:35.582Z,62.84
2024-05-09T11:55:35.638Z,62.84
2024-05-09T11:56:35.539Z,64.13
2024-05-09T11:57:35.588Z,64.54
2024-05-09T11:58:35.520Z,64.13
2024-05-09T11:59:35.515Z,66.23
2024-05-09T12:00:37.568Z,67.12
2024-05-09T12:01:35.568Z,67.12
2024-05-09T12:02:35.638Z,67.04
2024-05-09T12:03:35.541Z,66.21
2024-05-09T12:04:35.524Z,67.36
2024-05-09T12:05:35.536Z,67.14
2024-05-09T12:06:35.497Z,68.02
2024-05-09T12:07:35.456Z,67.24
2024-05-09T12:08:35.424Z,66.16
2024-05-09T12:09:35.422Z,64.87
2024-05-09T12:10:37.097Z,65.84
2024-05-09T12:11:35.476Z,66.90
2024-05-09T12:12:37.300Z,66.99
2024-05-09T12:13:36.393Z,64.96
2024-05-09T12:14:35.366Z,65.10
2024-05-09T12:15:35.376Z,65.88
2024-05-09T12:16:35.424Z,67.20
2024-05-09T12:17:35.380Z,65.32
2024-05-09T12:18:35.369Z,64.37
2024-05-09T12:19:35.965Z,65.11
2024-05-09T12:20:38.492Z,65.42
2024-05-09T12:21:35.374Z,65.37
2024-05-09T12:22:36.347Z,65.45
2024-05-09T12:23:35.289Z,65.17
2024-05-09T12:24:35.312Z,65.36
2024-05-09T12:25:35.280Z,66.21
2024-05-09T12:26:35.292Z,64.13
2024-05-09T12:27:35.290Z,64.28
2024-05-09T12:28:36.252Z,63.85
2024-05-09T12:29:38.244Z,63.81
2024-05-09T12:30:39.438Z,63.77
2024-05-09T12:31:35.221Z,63.91
2024-05-09T12:32:35.305Z,63.29
2024-05-09T12:33:35.283Z,63.37
2024-05-09T12:34:35.227Z,64.03
2024-05-09T12:35:35.186Z,63.67
2024-05-09T12:36:35.212Z,66.14
2024-05-09T12:37:35.145Z,66.20
2024-05-09T12:38:35.165Z,66.00
2024-05-09T12:39:35.179Z,65.13
2024-05-09T12:40:37.994Z,65.18
2024-05-09T12:41:35.106Z,62.67
2024-05-09T12:42:35.127Z,63.38
2024-05-09T12:43:35.119Z,63.28
2024-05-09T12:44:35.354Z,65.04
2024-05-09T12:45:35.128Z,63.32
2024-05-09T12:46:35.172Z,63.97
2024-05-09T12:47:35.125Z,63.78
2024-05-09T12:48:35.302Z,63.93
2024-05-09T12:49:35.221Z,66.27
2024-05-09T12:50:35.451Z,67.61
2024-05-09T12:51:35.121Z,66.15
2024-05-09T12:52:35.001Z,65.65
2024-05-09T12:53:35.046Z,64.21
2024-05-09T12:54:35.036Z,63.47
2024-05-09T12:55:41.394Z,64.69
2024-05-09T12:56:35.955Z,66.47